sensor_id;sensor_type;location;lat;lon;timestamp;pressure;altitude;pressure_sealevel;temperature;humidity
23643;BME280;11998;55.788;37.572;2023-04-19T00:00:28;99631.06;;;82.31;2.47
23643;BME280;11998;55.788;37.572;2023-04-19T00:01:28;99623.72;;;82.89;2.26
23643;BME280;11998;55.788;37.572;2023-04-19T00:02:29;99615.44;;;80.62;2.68
23643;BME280;11998;55.788;37.572;2023-04-19T00:03:30;99628.97;;;82.11;2.42
23643;BME280;11998;55.788;37.572;2023-04-19T00:04:31;99627.81;;;80.80;2.30
23643;BME280;11998;55.788;37.572;2023-04-19T00:05:32;99615.03;;;78.33;2.55
23643;BME280;11998;55.788;37.572;2023-04-19T00:06:33;99609.22;;;79.47;2.79
23643;BME280;11998;55.788;37.572;2023-04-19T00:07:34;99615.28;;;79.67;2.45
23643;BME280;11998;55.788;37.572;2023-04-19T00:08:35;99614.84;;;80.13;2.50
23643;BME280;11998;55.788;37.572;2023-04-19T00:09:36;99633.13;;;81.73;2.19
23643;BME280;11998;55.788;37.572;2023-04-19T00:10:36;99630.09;;;81.47;2.53
23643;BME280;11998;55.788;37.572;2023-04-19T00:11:40;99632.44;;;82.35;2.20
23643;BME280;11998;55.788;37.572;2023-04-19T00:12:40;99638.25;;;82.24;2.16
23643;BME280;11998;55.788;37.572;2023-04-19T00:13:40;99635.00;;;81.70;2.29
23643;BME280;11998;55.788;37.572;2023-04-19T00:14:41;99629.69;;;80.48;2.70
23643;BME280;11998;55.788;37.572;2023-04-19T00:15:42;99646.38;;;81.57;2.53
23643;BME280;11998;55.788;37.572;2023-04-19T00:16:42;99646.72;;;82.11;2.28
23643;BME280;11998;55.788;37.572;2023-04-19T00:17:46;99621.25;;;78.26;2.66
23643;BME280;11998;55.788;37.572;2023-04-19T00:18:46;99622.53;;;79.19;2.64
23643;BME280;11998;55.788;37.572;2023-04-19T00:19:47;99620.50;;;78.07;2.99
23643;BME280;11998;55.788;37.572;2023-04-19T00:20:48;99623.16;;;78.56;2.95
23643;BME280;11998;55.788;37.572;2023-04-19T00:21:48;99623.97;;;79.86;2.60
23643;BME280;11998;55.788;37.572;2023-04-19T00:22:49;99631.03;;;78.41;3.07
23643;BME280;11998;55.788;37.572;2023-04-19T00:23:50;99626.78;;;78.84;2.55
23643;BME280;11998;55.788;37.572;2023-04-19T00:24:51;99630.28;;;78.65;2.91
23643;BME280;11998;55.788;37.572;2023-04-19T00:25:55;99618.75;;;74.41;4.00
23643;BME280;11998;55.788;37.572;2023-04-19T00:26:55;99626.31;;;73.68;3.53
23643;BME280;11998;55.788;37.572;2023-04-19T00:27:56;99626.84;;;73.63;3.51
23643;BME280;11998;55.788;37.572;2023-04-19T00:28:57;99621.13;;;75.22;3.41
23643;BME280;11998;55.788;37.572;2023-04-19T00:29:58;99626.78;;;75.99;3.27
23643;BME280;11998;55.788;37.572;2023-04-19T00:30:58;99635.31;;;77.39;2.94
23643;BME280;11998;55.788;37.572;2023-04-19T00:31:59;99631.94;;;76.39;3.30
23643;BME280;11998;55.788;37.572;2023-04-19T00:32:59;99635.06;;;77.06;3.15
23643;BME280;11998;55.788;37.572;2023-04-19T00:34:00;99623.94;;;77.60;2.92
23643;BME280;11998;55.788;37.572;2023-04-19T00:35:00;99622.75;;;76.89;2.99
23643;BME280;11998;55.788;37.572;2023-04-19T00:36:01;99612.53;;;74.26;3.59
23643;BME280;11998;55.788;37.572;2023-04-19T00:37:02;99613.03;;;75.39;3.28
23643;BME280;11998;55.788;37.572;2023-04-19T00:38:05;99616.50;;;76.69;3.04
23643;BME280;11998;55.788;37.572;2023-04-19T00:39:06;99625.38;;;77.46;2.88
23643;BME280;11998;55.788;37.572;2023-04-19T00:40:07;99613.50;;;75.38;3.46
23643;BME280;11998;55.788;37.572;2023-04-19T00:41:08;99611.78;;;75.28;3.20
23643;BME280;11998;55.788;37.572;2023-04-19T00:42:08;99612.94;;;74.67;3.45
23643;BME280;11998;55.788;37.572;2023-04-19T00:43:09;99613.88;;;75.14;3.48
23643;BME280;11998;55.788;37.572;2023-04-19T00:44:09;99628.81;;;77.72;2.94
23643;BME280;11998;55.788;37.572;2023-04-19T00:45:11;99616.94;;;76.15;3.25
23643;BME280;11998;55.788;37.572;2023-04-19T00:46:13;99620.09;;;75.98;3.32
23643;BME280;11998;55.788;37.572;2023-04-19T00:47:14;99613.09;;;75.61;3.39
23643;BME280;11998;55.788;37.572;2023-04-19T00:48:15;99611.44;;;75.60;3.41
23643;BME280;11998;55.788;37.572;2023-04-19T00:49:17;99612.03;;;75.90;3.19
23643;BME280;11998;55.788;37.572;2023-04-19T00:50:18;99615.53;;;74.90;3.19
23643;BME280;11998;55.788;37.572;2023-04-19T00:51:19;99626.44;;;76.72;3.39
23643;BME280;11998;55.788;37.572;2023-04-19T00:52:21;99616.50;;;76.69;3.09
23643;BME280;11998;55.788;37.572;2023-04-19T00:53:22;99623.88;;;77.51;2.91
23643;BME280;11998;55.788;37.572;2023-04-19T00:54:22;99625.25;;;75.72;3.33
23643;BME280;11998;55.788;37.572;2023-04-19T00:55:24;99615.47;;;76.10;3.14
23643;BME280;11998;55.788;37.572;2023-04-19T00:56:25;99605.00;;;75.05;3.28
23643;BME280;11998;55.788;37.572;2023-04-19T00:57:27;99614.78;;;73.77;3.62
23643;BME280;11998;55.788;37.572;2023-04-19T00:58:29;99630.25;;;76.28;3.06
23643;BME280;11998;55.788;37.572;2023-04-19T00:59:32;99614.66;;;73.03;3.63
23643;BME280;11998;55.788;37.572;2023-04-19T01:00:34;99615.31;;;73.27;3.81
23643;BME280;11998;55.788;37.572;2023-04-19T01:01:35;99620.69;;;75.11;3.54
23643;BME280;11998;55.788;37.572;2023-04-19T01:02:37;99624.25;;;75.54;3.21
23643;BME280;11998;55.788;37.572;2023-04-19T01:03:37;99629.09;;;75.35;3.31
23643;BME280;11998;55.788;37.572;2023-04-19T01:04:38;99633.78;;;75.80;3.23
23643;BME280;11998;55.788;37.572;2023-04-19T01:05:39;99630.25;;;75.50;3.28
23643;BME280;11998;55.788;37.572;2023-04-19T01:06:40;99625.88;;;73.98;3.58
23643;BME280;11998;55.788;37.572;2023-04-19T01:07:42;99620.53;;;74.09;3.57
23643;BME280;11998;55.788;37.572;2023-04-19T01:08:42;99632.66;;;72.25;3.94
23643;BME280;11998;55.788;37.572;2023-04-19T01:09:43;99627.53;;;71.90;3.87
23643;BME280;11998;55.788;37.572;2023-04-19T01:10:44;99627.41;;;74.32;3.76
23643;BME280;11998;55.788;37.572;2023-04-19T01:11:49;99630.88;;;74.69;3.57
23643;BME280;11998;55.788;37.572;2023-04-19T01:12:50;99633.56;;;75.27;3.50
23643;BME280;11998;55.788;37.572;2023-04-19T01:13:51;99633.81;;;74.94;3.81
23643;BME280;11998;55.788;37.572;2023-04-19T01:14:51;99635.47;;;75.90;3.34
23643;BME280;11998;55.788;37.572;2023-04-19T01:15:53;99638.47;;;74.79;3.59
23643;BME280;11998;55.788;37.572;2023-04-19T01:16:56;99625.84;;;72.32;3.78
23643;BME280;11998;55.788;37.572;2023-04-19T01:17:56;99630.72;;;73.60;3.41
23643;BME280;11998;55.788;37.572;2023-04-19T01:18:57;99634.38;;;74.63;3.52
23643;BME280;11998;55.788;37.572;2023-04-19T01:20:01;99622.78;;;72.59;3.77
23643;BME280;11998;55.788;37.572;2023-04-19T01:21:03;99630.91;;;75.54;3.42
23643;BME280;11998;55.788;37.572;2023-04-19T01:22:06;99633.75;;;75.58;3.48
23643;BME280;11998;55.788;37.572;2023-04-19T01:23:06;99635.19;;;75.28;3.11
23643;BME280;11998;55.788;37.572;2023-04-19T01:24:10;99639.09;;;74.03;3.40
23643;BME280;11998;55.788;37.572;2023-04-19T01:25:11;99629.59;;;75.20;3.46
23643;BME280;11998;55.788;37.572;2023-04-19T01:26:11;99628.53;;;75.74;3.07
23643;BME280;11998;55.788;37.572;2023-04-19T01:27:12;99641.19;;;75.71;3.61
23643;BME280;11998;55.788;37.572;2023-04-19T01:28:13;99638.47;;;75.30;3.46
23643;BME280;11998;55.788;37.572;2023-04-19T01:29:16;99630.22;;;77.22;3.17
23643;BME280;11998;55.788;37.572;2023-04-19T01:30:18;99635.88;;;77.07;3.24
23643;BME280;11998;55.788;37.572;2023-04-19T01:31:18;99633.59;;;77.79;3.09
23643;BME280;11998;55.788;37.572;2023-04-19T01:32:19;99635.03;;;77.92;2.92
23643;BME280;11998;55.788;37.572;2023-04-19T01:33:20;99634.41;;;75.74;3.48
23643;BME280;11998;55.788;37.572;2023-04-19T01:34:21;99632.09;;;76.35;3.24
23643;BME280;11998;55.788;37.572;2023-04-19T01:35:26;99627.69;;;74.76;3.75
23643;BME280;11998;55.788;37.572;2023-04-19T01:36:27;99625.34;;;74.45;3.44
23643;BME280;11998;55.788;37.572;2023-04-19T01:37:28;99630.19;;;75.97;3.33
23643;BME280;11998;55.788;37.572;2023-04-19T01:38:28;99632.34;;;76.50;3.06
23643;BME280;11998;55.788;37.572;2023-04-19T01:39:29;99641.34;;;78.46;3.10
23643;BME280;11998;55.788;37.572;2023-04-19T01:40:30;99640.25;;;79.96;2.60
23643;BME280;11998;55.788;37.572;2023-04-19T01:41:31;99641.91;;;80.26;2.88
23643;BME280;11998;55.788;37.572;2023-04-19T01:42:31;99654.53;;;80.71;2.72
23643;BME280;11998;55.788;37.572;2023-04-19T01:43:35;99649.88;;;80.20;2.51
23643;BME280;11998;55.788;37.572;2023-04-19T01:44:35;99665.28;;;81.45;2.52
23643;BME280;11998;55.788;37.572;2023-04-19T01:45:36;99656.13;;;80.72;2.45
23643;BME280;11998;55.788;37.572;2023-04-19T01:46:36;99656.94;;;80.88;2.73
23643;BME280;11998;55.788;37.572;2023-04-19T01:47:38;99659.78;;;79.93;2.87
23643;BME280;11998;55.788;37.572;2023-04-19T01:48:38;99639.88;;;78.41;2.85
23643;BME280;11998;55.788;37.572;2023-04-19T01:49:39;99649.06;;;80.64;2.42
23643;BME280;11998;55.788;37.572;2023-04-19T01:50:40;99653.63;;;79.67;2.83
23643;BME280;11998;55.788;37.572;2023-04-19T01:51:40;99644.75;;;78.96;2.92
23643;BME280;11998;55.788;37.572;2023-04-19T01:52:41;99651.75;;;79.55;2.64
23643;BME280;11998;55.788;37.572;2023-04-19T01:53:42;99651.69;;;80.33;2.75
23643;BME280;11998;55.788;37.572;2023-04-19T01:54:42;99629.44;;;78.31;2.73
23643;BME280;11998;55.788;37.572;2023-04-19T01:55:43;99647.38;;;78.94;3.06
23643;BME280;11998;55.788;37.572;2023-04-19T01:56:43;99635.34;;;77.58;3.02
23643;BME280;11998;55.788;37.572;2023-04-19T01:57:44;99641.84;;;78.35;2.99
23643;BME280;11998;55.788;37.572;2023-04-19T01:58:44;99647.31;;;79.27;2.93
23643;BME280;11998;55.788;37.572;2023-04-19T01:59:45;99644.81;;;78.26;2.74
23643;BME280;11998;55.788;37.572;2023-04-19T02:00:46;99640.13;;;78.71;2.78
23643;BME280;11998;55.788;37.572;2023-04-19T02:01:46;99638.91;;;78.26;2.99
23643;BME280;11998;55.788;37.572;2023-04-19T02:02:47;99639.06;;;78.41;2.88
23643;BME280;11998;55.788;37.572;2023-04-19T02:03:47;99643.41;;;79.30;2.60
23643;BME280;11998;55.788;37.572;2023-04-19T02:04:48;99640.06;;;79.13;2.67
23643;BME280;11998;55.788;37.572;2023-04-19T02:05:48;99633.41;;;78.00;2.73
23643;BME280;11998;55.788;37.572;2023-04-19T02:06:49;99640.25;;;77.97;3.07
23643;BME280;11998;55.788;37.572;2023-04-19T02:07:50;99629.72;;;76.74;3.45
23643;BME280;11998;55.788;37.572;2023-04-19T02:08:50;99638.75;;;78.81;2.94
23643;BME280;11998;55.788;37.572;2023-04-19T02:09:51;99637.31;;;77.61;2.91
23643;BME280;11998;55.788;37.572;2023-04-19T02:10:51;99640.03;;;78.38;3.04
23643;BME280;11998;55.788;37.572;2023-04-19T02:11:52;99632.75;;;76.39;3.34
23643;BME280;11998;55.788;37.572;2023-04-19T02:12:52;99631.28;;;76.13;3.34
23643;BME280;11998;55.788;37.572;2023-04-19T02:13:53;99631.53;;;78.91;3.05
23643;BME280;11998;55.788;37.572;2023-04-19T02:14:56;99635.00;;;78.20;2.77
23643;BME280;11998;55.788;37.572;2023-04-19T02:15:57;99631.41;;;77.52;2.90
23643;BME280;11998;55.788;37.572;2023-04-19T02:16:57;99629.78;;;77.32;2.89
23643;BME280;11998;55.788;37.572;2023-04-19T02:17:58;99641.22;;;77.76;3.18
23643;BME280;11998;55.788;37.572;2023-04-19T02:18:59;99625.00;;;76.85;3.10
23643;BME280;11998;55.788;37.572;2023-04-19T02:19:59;99639.50;;;77.20;2.99
23643;BME280;11998;55.788;37.572;2023-04-19T02:21:00;99622.69;;;75.96;3.47
23643;BME280;11998;55.788;37.572;2023-04-19T02:22:01;99625.75;;;74.31;3.67
23643;BME280;11998;55.788;37.572;2023-04-19T02:23:01;99636.44;;;74.08;3.44
23643;BME280;11998;55.788;37.572;2023-04-19T02:24:02;99640.91;;;76.97;3.42
23643;BME280;11998;55.788;37.572;2023-04-19T02:25:03;99640.56;;;76.11;3.38
23643;BME280;11998;55.788;37.572;2023-04-19T02:26:04;99634.06;;;74.87;3.15
23643;BME280;11998;55.788;37.572;2023-04-19T02:27:05;99632.34;;;75.84;3.53
23643;BME280;11998;55.788;37.572;2023-04-19T02:28:05;99634.72;;;74.65;3.40
23643;BME280;11998;55.788;37.572;2023-04-19T02:29:06;99646.19;;;77.11;3.25
23643;BME280;11998;55.788;37.572;2023-04-19T02:30:07;99646.78;;;77.74;3.16
23643;BME280;11998;55.788;37.572;2023-04-19T02:31:08;99633.22;;;74.74;3.37
23643;BME280;11998;55.788;37.572;2023-04-19T02:32:13;99625.25;;;75.00;3.61
23643;BME280;11998;55.788;37.572;2023-04-19T02:33:16;99627.25;;;72.44;4.02
23643;BME280;11998;55.788;37.572;2023-04-19T02:34:17;99625.56;;;72.46;3.79
23643;BME280;11998;55.788;37.572;2023-04-19T02:35:17;99627.53;;;73.38;3.87
23643;BME280;11998;55.788;37.572;2023-04-19T02:36:18;99631.84;;;72.81;3.82
23643;BME280;11998;55.788;37.572;2023-04-19T02:37:18;99634.44;;;75.49;3.66
23643;BME280;11998;55.788;37.572;2023-04-19T02:38:19;99652.56;;;77.28;3.14
23643;BME280;11998;55.788;37.572;2023-04-19T02:39:20;99644.34;;;76.65;3.13
23643;BME280;11998;55.788;37.572;2023-04-19T02:40:20;99643.16;;;76.31;3.04
23643;BME280;11998;55.788;37.572;2023-04-19T02:41:22;99647.50;;;78.57;2.78
23643;BME280;11998;55.788;37.572;2023-04-19T02:42:22;99646.41;;;78.45;2.70
23643;BME280;11998;55.788;37.572;2023-04-19T02:43:23;99650.19;;;78.88;2.74
23643;BME280;11998;55.788;37.572;2023-04-19T02:44:23;99652.59;;;78.38;2.83
23643;BME280;11998;55.788;37.572;2023-04-19T02:45:24;99646.44;;;78.18;2.74
23643;BME280;11998;55.788;37.572;2023-04-19T02:46:24;99649.53;;;78.33;2.81
23643;BME280;11998;55.788;37.572;2023-04-19T02:47:25;99650.94;;;77.27;3.24
23643;BME280;11998;55.788;37.572;2023-04-19T02:48:25;99650.53;;;77.65;3.26
23643;BME280;11998;55.788;37.572;2023-04-19T02:49:26;99652.03;;;77.79;3.08
23643;BME280;11998;55.788;37.572;2023-04-19T02:50:30;99654.63;;;77.95;2.86
23643;BME280;11998;55.788;37.572;2023-04-19T02:51:31;99652.22;;;76.02;3.20
23643;BME280;11998;55.788;37.572;2023-04-19T02:52:34;99657.22;;;77.66;3.04
23643;BME280;11998;55.788;37.572;2023-04-19T02:53:35;99651.38;;;77.57;3.22
23643;BME280;11998;55.788;37.572;2023-04-19T02:54:35;99652.25;;;77.17;3.24
23643;BME280;11998;55.788;37.572;2023-04-19T02:55:36;99648.66;;;76.51;3.45
23643;BME280;11998;55.788;37.572;2023-04-19T02:56:37;99659.16;;;77.51;3.19
23643;BME280;11998;55.788;37.572;2023-04-19T02:57:37;99662.13;;;77.96;2.72
23643;BME280;11998;55.788;37.572;2023-04-19T02:58:38;99653.63;;;79.20;2.64
23643;BME280;11998;55.788;37.572;2023-04-19T02:59:38;99660.00;;;78.24;3.10
23643;BME280;11998;55.788;37.572;2023-04-19T03:00:39;99653.34;;;78.06;3.21
23643;BME280;11998;55.788;37.572;2023-04-19T03:01:39;99650.66;;;77.34;3.05
23643;BME280;11998;55.788;37.572;2023-04-19T03:02:41;99652.28;;;76.11;3.40
23643;BME280;11998;55.788;37.572;2023-04-19T03:03:42;99646.88;;;75.53;3.62
23643;BME280;11998;55.788;37.572;2023-04-19T03:04:43;99663.88;;;76.58;3.30
23643;BME280;11998;55.788;37.572;2023-04-19T03:05:43;99659.06;;;78.79;3.04
23643;BME280;11998;55.788;37.572;2023-04-19T03:06:44;99656.91;;;78.10;3.15
23643;BME280;11998;55.788;37.572;2023-04-19T03:07:44;99663.97;;;78.73;2.84
23643;BME280;11998;55.788;37.572;2023-04-19T03:08:45;99671.75;;;80.29;2.49
23643;BME280;11998;55.788;37.572;2023-04-19T03:09:46;99663.84;;;79.09;3.08
23643;BME280;11998;55.788;37.572;2023-04-19T03:10:46;99658.25;;;79.11;2.95
23643;BME280;11998;55.788;37.572;2023-04-19T03:11:47;99663.03;;;76.58;3.24
23643;BME280;11998;55.788;37.572;2023-04-19T03:12:47;99656.16;;;77.23;3.17
23643;BME280;11998;55.788;37.572;2023-04-19T03:13:48;99655.53;;;75.91;3.20
23643;BME280;11998;55.788;37.572;2023-04-19T03:14:48;99654.81;;;76.00;3.16
23643;BME280;11998;55.788;37.572;2023-04-19T03:15:49;99649.97;;;75.11;3.55
23643;BME280;11998;55.788;37.572;2023-04-19T03:16:49;99649.72;;;76.66;3.19
23643;BME280;11998;55.788;37.572;2023-04-19T03:17:50;99657.44;;;77.13;3.28
23643;BME280;11998;55.788;37.572;2023-04-19T03:18:51;99657.44;;;75.85;3.12
23643;BME280;11998;55.788;37.572;2023-04-19T03:19:52;99655.31;;;76.20;3.21
23643;BME280;11998;55.788;37.572;2023-04-19T03:20:53;99646.72;;;75.09;3.34
23643;BME280;11998;55.788;37.572;2023-04-19T03:21:53;99659.53;;;73.90;3.87
23643;BME280;11998;55.788;37.572;2023-04-19T03:22:54;99652.94;;;76.15;3.21
23643;BME280;11998;55.788;37.572;2023-04-19T03:23:54;99659.19;;;76.17;3.46
23643;BME280;11998;55.788;37.572;2023-04-19T03:24:55;99662.25;;;76.36;3.12
23643;BME280;11998;55.788;37.572;2023-04-19T03:25:56;99658.88;;;78.13;3.01
23643;BME280;11998;55.788;37.572;2023-04-19T03:26:56;99663.13;;;77.57;3.15
23643;BME280;11998;55.788;37.572;2023-04-19T03:27:57;99657.47;;;76.51;3.13
23643;BME280;11998;55.788;37.572;2023-04-19T03:28:58;99666.81;;;76.89;3.31
23643;BME280;11998;55.788;37.572;2023-04-19T03:29:58;99655.13;;;78.03;2.93
23643;BME280;11998;55.788;37.572;2023-04-19T03:30:59;99660.50;;;78.32;3.14
23643;BME280;11998;55.788;37.572;2023-04-19T03:32:00;99667.28;;;78.99;2.72
23643;BME280;11998;55.788;37.572;2023-04-19T03:33:00;99663.69;;;78.52;3.07
23643;BME280;11998;55.788;37.572;2023-04-19T03:34:01;99656.88;;;77.45;2.90
23643;BME280;11998;55.788;37.572;2023-04-19T03:35:02;99667.81;;;76.65;3.12
23643;BME280;11998;55.788;37.572;2023-04-19T03:36:03;99665.97;;;77.29;3.22
23643;BME280;11998;55.788;37.572;2023-04-19T03:37:03;99667.03;;;77.72;3.24
23643;BME280;11998;55.788;37.572;2023-04-19T03:38:04;99669.88;;;78.64;2.94
23643;BME280;11998;55.788;37.572;2023-04-19T03:39:05;99663.88;;;77.39;2.94
23643;BME280;11998;55.788;37.572;2023-04-19T03:40:06;99662.75;;;77.45;3.35
23643;BME280;11998;55.788;37.572;2023-04-19T03:41:17;99663.88;;;76.58;3.03
23643;BME280;11998;55.788;37.572;2023-04-19T03:42:18;99663.31;;;77.13;3.21
23643;BME280;11998;55.788;37.572;2023-04-19T03:43:18;99669.72;;;77.21;3.20
23643;BME280;11998;55.788;37.572;2023-04-19T03:44:19;99663.34;;;76.29;3.38
23643;BME280;11998;55.788;37.572;2023-04-19T03:45:19;99664.06;;;76.64;3.35
23643;BME280;11998;55.788;37.572;2023-04-19T03:46:20;99645.81;;;72.33;3.96
23643;BME280;11998;55.788;37.572;2023-04-19T03:47:20;99651.03;;;73.96;3.54
23643;BME280;11998;55.788;37.572;2023-04-19T03:48:21;99647.88;;;73.25;3.62
23643;BME280;11998;55.788;37.572;2023-04-19T03:49:21;99648.22;;;73.11;3.66
23643;BME280;11998;55.788;37.572;2023-04-19T03:50:22;99643.19;;;74.89;3.61
23643;BME280;11998;55.788;37.572;2023-04-19T03:51:23;99659.34;;;76.67;3.35
23643;BME280;11998;55.788;37.572;2023-04-19T03:52:23;99664.28;;;76.48;3.12
23643;BME280;11998;55.788;37.572;2023-04-19T03:53:25;99666.75;;;76.27;3.01
23643;BME280;11998;55.788;37.572;2023-04-19T03:54:26;99670.28;;;78.20;3.12
23643;BME280;11998;55.788;37.572;2023-04-19T03:55:26;99668.38;;;76.28;3.37
23643;BME280;11998;55.788;37.572;2023-04-19T03:56:27;99674.50;;;77.36;3.16
23643;BME280;11998;55.788;37.572;2023-04-19T03:57:27;99667.91;;;78.70;2.75
23643;BME280;11998;55.788;37.572;2023-04-19T03:58:28;99671.06;;;78.57;2.99
23643;BME280;11998;55.788;37.572;2023-04-19T03:59:28;99669.75;;;78.67;3.04
23643;BME280;11998;55.788;37.572;2023-04-19T04:00:29;99676.22;;;77.83;3.09
23643;BME280;11998;55.788;37.572;2023-04-19T04:01:30;99672.06;;;78.36;2.85
23643;BME280;11998;55.788;37.572;2023-04-19T04:02:31;99677.34;;;77.77;2.87
23643;BME280;11998;55.788;37.572;2023-04-19T04:03:31;99664.50;;;79.04;2.86
23643;BME280;11998;55.788;37.572;2023-04-19T04:04:32;99668.41;;;79.10;2.97
23643;BME280;11998;55.788;37.572;2023-04-19T04:05:33;99667.41;;;78.62;2.82
23643;BME280;11998;55.788;37.572;2023-04-19T04:06:34;99667.91;;;79.36;2.79
23643;BME280;11998;55.788;37.572;2023-04-19T04:07:35;99666.22;;;79.20;3.02
23643;BME280;11998;55.788;37.572;2023-04-19T04:08:35;99667.34;;;79.23;3.04
23643;BME280;11998;55.788;37.572;2023-04-19T04:09:36;99673.78;;;78.79;2.74
23643;BME280;11998;55.788;37.572;2023-04-19T04:10:36;99673.22;;;77.65;3.22
23643;BME280;11998;55.788;37.572;2023-04-19T04:11:37;99672.19;;;76.60;3.28
23643;BME280;11998;55.788;37.572;2023-04-19T04:12:37;99673.78;;;77.23;3.09
23643;BME280;11998;55.788;37.572;2023-04-19T04:13:38;99675.38;;;78.89;2.84
23643;BME280;11998;55.788;37.572;2023-04-19T04:14:38;99677.06;;;79.38;2.55
23643;BME280;11998;55.788;37.572;2023-04-19T04:15:39;99680.25;;;79.73;2.83
23643;BME280;11998;55.788;37.572;2023-04-19T04:16:40;99680.72;;;78.48;3.07
23643;BME280;11998;55.788;37.572;2023-04-19T04:17:40;99669.34;;;79.17;2.93
23643;BME280;11998;55.788;37.572;2023-04-19T04:18:41;99669.03;;;79.62;2.72
23643;BME280;11998;55.788;37.572;2023-04-19T04:19:41;99677.44;;;78.55;2.79
23643;BME280;11998;55.788;37.572;2023-04-19T04:20:43;99672.59;;;78.25;2.94
23643;BME280;11998;55.788;37.572;2023-04-19T04:21:43;99674.56;;;78.10;2.95
23643;BME280;11998;55.788;37.572;2023-04-19T04:22:44;99672.06;;;76.95;3.10
23643;BME280;11998;55.788;37.572;2023-04-19T04:23:48;99673.69;;;78.97;2.74
23643;BME280;11998;55.788;37.572;2023-04-19T04:24:49;99675.44;;;76.62;3.35
23643;BME280;11998;55.788;37.572;2023-04-19T04:25:59;99669.19;;;76.29;3.18
23643;BME280;11998;55.788;37.572;2023-04-19T04:27:00;99679.69;;;78.70;2.86
23643;BME280;11998;55.788;37.572;2023-04-19T04:28:03;99682.09;;;80.09;2.90
23643;BME280;11998;55.788;37.572;2023-04-19T04:29:04;99677.88;;;78.63;2.81
23643;BME280;11998;55.788;37.572;2023-04-19T04:30:06;99671.81;;;77.11;3.05
23643;BME280;11998;55.788;37.572;2023-04-19T04:31:06;99675.81;;;79.30;2.66
23643;BME280;11998;55.788;37.572;2023-04-19T04:32:07;99679.72;;;78.51;2.89
23643;BME280;11998;55.788;37.572;2023-04-19T04:33:09;99682.81;;;80.04;2.69
23643;BME280;11998;55.788;37.572;2023-04-19T04:34:11;99687.22;;;81.18;2.40
23643;BME280;11998;55.788;37.572;2023-04-19T04:35:11;99674.00;;;77.38;2.84
23643;BME280;11998;55.788;37.572;2023-04-19T04:36:12;99685.03;;;80.09;2.57
23643;BME280;11998;55.788;37.572;2023-04-19T04:37:12;99693.28;;;80.94;2.47
23643;BME280;11998;55.788;37.572;2023-04-19T04:38:13;99707.66;;;82.23;2.63
23643;BME280;11998;55.788;37.572;2023-04-19T04:39:15;99702.38;;;82.59;2.21
23643;BME280;11998;55.788;37.572;2023-04-19T04:40:18;99709.06;;;82.54;2.55
23643;BME280;11998;55.788;37.572;2023-04-19T04:41:18;99696.91;;;83.20;2.50
23643;BME280;11998;55.788;37.572;2023-04-19T04:42:20;99707.19;;;83.79;2.05
23643;BME280;11998;55.788;37.572;2023-04-19T04:43:22;99705.66;;;84.00;2.08
23643;BME280;11998;55.788;37.572;2023-04-19T04:44:23;99711.63;;;84.39;2.18
23643;BME280;11998;55.788;37.572;2023-04-19T04:45:23;99708.81;;;83.31;2.43
23643;BME280;11998;55.788;37.572;2023-04-19T04:46:24;99710.00;;;84.22;2.37
23643;BME280;11998;55.788;37.572;2023-04-19T04:47:29;99717.59;;;84.56;2.28
23643;BME280;11998;55.788;37.572;2023-04-19T04:48:30;99714.22;;;82.90;2.31
23643;BME280;11998;55.788;37.572;2023-04-19T04:49:33;99684.78;;;79.35;2.68
23643;BME280;11998;55.788;37.572;2023-04-19T04:50:34;99692.00;;;80.65;2.30
23643;BME280;11998;55.788;37.572;2023-04-19T04:51:35;99690.91;;;80.98;2.44
23643;BME280;11998;55.788;37.572;2023-04-19T04:52:36;99705.00;;;83.20;2.20
23643;BME280;11998;55.788;37.572;2023-04-19T04:53:37;99692.44;;;79.66;2.88
23643;BME280;11998;55.788;37.572;2023-04-19T04:54:37;99702.09;;;82.31;2.51
23643;BME280;11998;55.788;37.572;2023-04-19T04:55:38;99699.88;;;81.59;2.66
23643;BME280;11998;55.788;37.572;2023-04-19T04:56:38;99709.47;;;84.29;2.59
23643;BME280;11998;55.788;37.572;2023-04-19T04:57:39;99716.22;;;85.08;2.22
23643;BME280;11998;55.788;37.572;2023-04-19T04:58:40;99701.69;;;82.75;2.54
23643;BME280;11998;55.788;37.572;2023-04-19T04:59:40;99721.81;;;85.34;2.22
23643;BME280;11998;55.788;37.572;2023-04-19T05:00:41;99712.41;;;84.12;2.05
23643;BME280;11998;55.788;37.572;2023-04-19T05:01:41;99714.41;;;85.57;2.21
23643;BME280;11998;55.788;37.572;2023-04-19T05:02:42;99727.34;;;88.13;1.62
23643;BME280;11998;55.788;37.572;2023-04-19T05:03:42;99730.69;;;89.40;1.59
23643;BME280;11998;55.788;37.572;2023-04-19T05:04:43;99702.28;;;86.73;1.84
23643;BME280;11998;55.788;37.572;2023-04-19T05:05:43;99721.59;;;88.34;1.71
23643;BME280;11998;55.788;37.572;2023-04-19T05:06:44;99722.84;;;88.71;1.70
23643;BME280;11998;55.788;37.572;2023-04-19T05:07:44;99735.25;;;91.34;1.33
23643;BME280;11998;55.788;37.572;2023-04-19T05:08:45;99724.88;;;93.01;1.12
23643;BME280;11998;55.788;37.572;2023-04-19T05:09:45;99718.94;;;94.14;1.18
23643;BME280;11998;55.788;37.572;2023-04-19T05:10:46;99709.56;;;93.78;1.06
23643;BME280;11998;55.788;37.572;2023-04-19T05:11:46;99715.00;;;94.54;1.19
23643;BME280;11998;55.788;37.572;2023-04-19T05:12:47;99699.91;;;94.37;1.01
23643;BME280;11998;55.788;37.572;2023-04-19T05:13:48;99709.13;;;94.81;1.00
23643;BME280;11998;55.788;37.572;2023-04-19T05:14:48;99681.91;;;92.61;1.04
23643;BME280;11998;55.788;37.572;2023-04-19T05:15:49;99715.88;;;95.51;1.27
23643;BME280;11998;55.788;37.572;2023-04-19T05:16:50;99721.84;;;96.97;0.68
23643;BME280;11998;55.788;37.572;2023-04-19T05:17:50;99704.41;;;95.94;0.90
23643;BME280;11998;55.788;37.572;2023-04-19T05:18:51;99703.38;;;95.54;0.78
23643;BME280;11998;55.788;37.572;2023-04-19T05:19:51;99712.44;;;97.13;0.69
23643;BME280;11998;55.788;37.572;2023-04-19T05:20:52;99700.44;;;98.35;0.48
23643;BME280;11998;55.788;37.572;2023-04-19T05:21:53;99691.84;;;97.60;0.83
23643;BME280;11998;55.788;37.572;2023-04-19T05:22:57;99664.25;;;92.65;1.21